Time;durP1;ratioP1;P1;durP2;ratioP2;P2;SDS_P1;SDS_P2;PMS_P1;PMS_P2;Temp;Humidity;BMP_temperature;BMP_pressure;BME280_temperature;BME280_humidity;BME280_pressure;Samples;Min_cycle;Max_cycle;Signal;HPM_P1;HPM_P2
2023/10/06 00:01:04;;;;;;;20.70;20.00;;;21.20;99.90;;;;;;4994385;28;20950;-65
2023/10/06 00:03:31;;;;;;;21.57;20.77;;;21.20;99.90;;;;;;4992075;28;20471;-65
2023/10/06 00:05:58;;;;;;;20.43;19.73;;;21.20;99.90;;;;;;4994361;28;20586;-65
2023/10/06 00:08:32;;;;;;;20.50;19.80;;;21.20;99.90;;;;;;4994267;28;20467;-65
2023/10/06 00:11:11;;;;;;;21.10;20.40;;;21.20;99.90;;;;;;4986524;28;20525;-65
2023/10/06 00:13:39;;;;;;;22.30;21.50;;;21.10;99.90;;;;;;4992110;28;20507;-65
2023/10/06 00:16:07;;;;;;;22.40;21.57;;;21.10;99.90;;;;;;4992105;28;20447;-65
2023/10/06 00:18:36;;;;;;;21.73;21.03;;;21.10;99.90;;;;;;4993827;28;20538;-64
2023/10/06 00:21:05;;;;;;;21.83;21.13;;;21.10;99.90;;;;;;4993967;28;20524;-65
2023/10/06 00:23:38;;;;;;;20.83;20.13;;;21.10;99.90;;;;;;4992447;28;20451;-65
2023/10/06 00:26:08;;;;;;;20.60;19.90;;;21.10;99.90;;;;;;4994146;28;20438;-65
2023/10/06 00:28:36;;;;;;;19.70;19.10;;;21.10;99.90;;;;;;4993805;28;20526;-64
2023/10/06 00:31:08;;;;;;;20.60;19.90;;;21.10;99.90;;;;;;4993755;28;20447;-65
2023/10/06 00:33:37;;;;;;;21.80;21.10;;;21.10;99.90;;;;;;4993142;28;20443;-64
2023/10/06 00:36:12;;;;;;;20.97;20.17;;;21.10;99.90;;;;;;4993796;28;20508;-65
2023/10/06 00:38:40;;;;;;;21.23;20.53;;;21.10;99.90;;;;;;4993537;28;20856;-65
2023/10/06 00:41:07;;;;;;;21.27;20.37;;;21.10;99.90;;;;;;4993688;28;20451;-65
2023/10/06 00:43:37;;;;;;;22.20;21.30;;;21.10;99.90;;;;;;4992331;28;20455;-65
2023/10/06 00:46:07;;;;;;;21.67;20.80;;;21.10;99.90;;;;;;4993573;28;20447;-65
2023/10/06 00:48:38;;;;;;;20.77;20.07;;;21.10;99.90;;;;;;4993470;28;20438;-65
2023/10/06 00:51:06;;;;;;;20.70;19.90;;;21.10;99.90;;;;;;4993529;28;20447;-65
2023/10/06 00:53:33;;;;;;;20.83;19.93;;;21.10;99.90;;;;;;4992705;28;20870;-64
2023/10/06 00:56:04;;;;;;;21.10;20.40;;;21.00;99.90;;;;;;4993385;28;20477;-64
2023/10/06 00:58:34;;;;;;;20.80;19.90;;;21.00;99.90;;;;;;4993329;28;20543;-65
2023/10/06 01:01:05;;;;;;;20.10;19.40;;;21.00;99.90;;;;;;4985636;28;20462;-64
2023/10/06 01:03:38;;;;;;;20.73;20.03;;;21.00;99.90;;;;;;4992688;28;20942;-64
2023/10/06 01:06:10;;;;;;;20.93;20.23;;;21.00;99.90;;;;;;4986006;28;20441;-64
2023/10/06 01:08:37;;;;;;;21.57;20.87;;;21.00;99.90;;;;;;4993177;28;20445;-65
2023/10/06 01:11:11;;;;;;;22.47;21.43;;;21.00;99.90;;;;;;4992423;28;20912;-65
2023/10/06 01:13:52;;;;;;;21.97;21.07;;;21.00;99.90;;;;;;4992478;28;20493;-65
2023/10/06 01:16:19;;;;;;;20.70;20.00;;;21.00;99.90;;;;;;4992838;28;20458;-65
2023/10/06 01:18:52;;;;;;;21.10;20.40;;;21.00;99.90;;;;;;4992734;28;20982;-65
2023/10/06 01:21:28;;;;;;;21.40;20.60;;;21.00;99.90;;;;;;4992929;28;20451;-65
2023/10/06 01:23:58;;;;;;;21.83;21.03;;;21.00;99.90;;;;;;4992204;28;20466;-65
2023/10/06 01:26:25;;;;;;;20.30;19.60;;;20.90;99.90;;;;;;4992778;28;20858;-65
2023/10/06 01:28:53;;;;;;;21.83;20.97;;;21.00;99.90;;;;;;4992708;28;20486;-65
2023/10/06 01:31:20;;;;;;;20.83;20.13;;;20.90;99.90;;;;;;4992701;28;20454;-65
2023/10/06 01:33:47;;;;;;;21.00;20.30;;;20.90;99.90;;;;;;4991858;28;20442;-65
2023/10/06 01:36:15;;;;;;;20.83;20.13;;;20.90;99.90;;;;;;5034175;23;21064;-66
2023/10/06 01:38:43;;;;;;;20.70;20.00;;;20.90;99.90;;;;;;5011510;28;20482;-65
2023/10/06 01:41:12;;;;;;;21.70;20.87;;;20.90;99.90;;;;;;5010113;28;20446;-65
2023/10/06 01:43:39;;;;;;;21.90;21.13;;;20.90;99.90;;;;;;5009298;28;20455;-65
2023/10/06 01:46:07;;;;;;;21.53;20.73;;;20.90;99.90;;;;;;5012001;28;20516;-65
2023/10/06 01:48:36;;;;;;;21.63;20.83;;;20.90;99.90;;;;;;5011963;28;20472;-65
2023/10/06 01:51:08;;;;;;;21.83;21.03;;;20.90;99.90;;;;;;5011794;28;21051;-65
2023/10/06 01:53:40;;;;;;;20.87;20.17;;;20.90;99.90;;;;;;5011840;28;21143;-65
2023/10/06 01:56:08;;;;;;;21.90;21.03;;;20.90;99.90;;;;;;5004684;28;20470;-65
2023/10/06 01:58:37;;;;;;;21.17;20.47;;;20.90;99.90;;;;;;5011840;28;20445;-65
2023/10/06 02:01:06;;;;;;;21.10;20.40;;;20.90;99.90;;;;;;5008680;28;20474;-65
2023/10/06 02:03:38;;;;;;;21.13;20.33;;;20.90;99.90;;;;;;5011564;28;20941;-65
2023/10/06 02:06:12;;;;;;;21.27;20.33;;;20.90;99.90;;;;;;5004196;28;20474;-66
2023/10/06 02:08:40;;;;;;;21.40;20.60;;;20.90;99.90;;;;;;5011728;28;20449;-65
2023/10/06 02:11:09;;;;;;;21.37;20.67;;;20.90;99.90;;;;;;5011519;28;20872;-65
2023/10/06 02:13:38;;;;;;;21.50;20.70;;;20.90;99.90;;;;;;5011417;28;20860;-65
2023/10/06 02:16:06;;;;;;;22.50;21.70;;;20.90;99.90;;;;;;5011567;28;20537;-65
2023/10/06 02:18:36;;;;;;;21.10;20.30;;;20.90;99.90;;;;;;5011573;28;20508;-65
2023/10/06 02:21:14;;;;;;;23.90;23.10;;;20.90;99.90;;;;;;5008032;28;20473;-65
2023/10/06 02:23:41;;;;;;;22.73;21.83;;;20.90;99.90;;;;;;5011257;28;20446;-64
2023/10/06 02:26:09;;;;;;;23.50;22.60;;;20.90;99.90;;;;;;5011611;28;20465;-66
2023/10/06 02:28:44;;;;;;;21.17;20.37;;;20.80;99.90;;;;;;5011068;28;20540;-65
2023/10/06 02:31:12;;;;;;;21.00;20.30;;;20.80;99.90;;;;;;5004684;28;20811;-65
2023/10/06 02:33:40;;;;;;;20.70;20.00;;;20.80;99.90;;;;;;5011203;28;20488;-65
2023/10/06 02:36:17;;;;;;;21.60;20.80;;;20.80;99.90;;;;;;5011252;28;20501;-65
2023/10/06 02:38:47;;;;;;;22.03;21.33;;;20.80;99.90;;;;;;5011151;28;20545;-65
2023/10/06 02:41:25;;;;;;;21.00;20.23;;;20.80;99.90;;;;;;5011395;28;20446;-65
2023/10/06 02:43:54;;;;;;;21.40;20.60;;;20.80;99.90;;;;;;5011231;28;20461;-66
2023/10/06 02:46:25;;;;;;;21.40;20.50;;;20.80;99.90;;;;;;5011235;28;20493;-65
2023/10/06 02:48:52;;;;;;;21.70;20.90;;;20.80;99.90;;;;;;5011066;28;20453;-65
2023/10/06 02:51:22;;;;;;;21.47;20.67;;;20.80;99.90;;;;;;5011292;28;20821;-66
2023/10/06 02:53:52;;;;;;;21.07;20.33;;;20.80;99.90;;;;;;5011083;28;20452;-66
2023/10/06 02:56:28;;;;;;;21.13;20.40;;;20.80;99.90;;;;;;5011425;28;20461;-66
2023/10/06 02:59:07;;;;;;;21.43;20.63;;;20.80;99.90;;;;;;5011052;28;20979;-65
2023/10/06 03:01:38;;;;;;;22.10;21.30;;;20.80;99.90;;;;;;5011190;28;20456;-64
2023/10/06 03:04:07;;;;;;;22.53;21.63;;;20.80;99.90;;;;;;5011102;28;20531;-65
2023/10/06 03:06:34;;;;;;;22.60;21.80;;;20.80;99.90;;;;;;5011315;28;20446;-65
2023/10/06 03:09:06;;;;;;;22.10;21.20;;;20.80;99.90;;;;;;5010892;28;20474;-65
2023/10/06 03:11:33;;;;;;;21.93;21.13;;;20.80;99.90;;;;;;5011228;28;20557;-66
2023/10/06 03:14:03;;;;;;;21.73;20.93;;;20.80;99.90;;;;;;5010924;28;20438;-65
2023/10/06 03:16:32;;;;;;;21.53;20.83;;;20.80;99.90;;;;;;5011205;28;20457;-65
2023/10/06 03:18:59;;;;;;;22.23;21.33;;;20.80;99.90;;;;;;5010738;28;20465;-65
2023/10/06 03:21:30;;;;;;;21.73;20.93;;;20.80;99.90;;;;;;5011056;28;20442;-66
2023/10/06 03:24:05;;;;;;;22.07;21.17;;;20.80;99.90;;;;;;5010881;28;20453;-65
2023/10/06 03:26:34;;;;;;;22.40;21.60;;;20.70;99.90;;;;;;5011195;28;20449;-65
2023/10/06 03:29:04;;;;;;;22.40;21.60;;;20.80;99.90;;;;;;5010782;28;20450;-65
2023/10/06 03:31:44;;;;;;;22.60;21.70;;;20.70;99.90;;;;;;5011015;28;20821;-66
2023/10/06 03:34:16;;;;;;;23.27;22.47;;;20.70;99.90;;;;;;5004973;28;20442;-65
2023/10/06 03:36:51;;;;;;;23.43;22.63;;;20.70;99.90;;;;;;5014135;28;20460;-65
2023/10/06 03:39:27;;;;;;;22.67;21.87;;;20.70;99.90;;;;;;5014359;28;20936;-65
2023/10/06 03:41:59;;;;;;;22.50;21.60;;;20.70;99.90;;;;;;5014336;28;20454;-65
2023/10/06 03:44:30;;;;;;;21.57;20.77;;;20.70;99.90;;;;;;5014203;28;20466;-65
2023/10/06 03:47:00;;;;;;;21.60;20.70;;;20.70;99.90;;;;;;5013925;28;20483;-64
2023/10/06 03:49:27;;;;;;;22.30;21.50;;;20.70;99.90;;;;;;5014361;28;20437;-64
2023/10/06 03:51:55;;;;;;;22.67;21.67;;;20.70;99.90;;;;;;5014111;28;21004;-66
2023/10/06 03:54:22;;;;;;;22.17;21.27;;;20.70;99.90;;;;;;5014032;28;21188;-65
2023/10/06 03:56:50;;;;;;;22.23;21.43;;;20.70;99.90;;;;;;5013942;28;20486;-66
2023/10/06 03:59:17;;;;;;;21.67;20.87;;;20.70;99.90;;;;;;5013969;28;20504;-64
2023/10/06 04:01:45;;;;;;;24.30;23.40;;;20.70;99.90;;;;;;5013522;28;20485;-65
2023/10/06 04:04:15;;;;;;;23.47;22.63;;;20.70;99.90;;;;;;5013762;28;20528;-65
2023/10/06 04:06:42;;;;;;;23.80;23.00;;;20.70;99.90;;;;;;5013550;28;20461;-65
2023/10/06 04:09:10;;;;;;;23.97;23.07;;;20.70;99.90;;;;;;5013812;28;20457;-65
2023/10/06 04:11:37;;;;;;;23.50;22.67;;;20.70;99.90;;;;;;5013896;28;20961;-66
2023/10/06 04:14:05;;;;;;;24.40;23.50;;;20.70;99.90;;;;;;5013368;28;20449;-65
2023/10/06 04:16:45;;;;;;;27.70;26.50;;;20.70;99.90;;;;;;5013035;28;20516;-65
2023/10/06 04:19:15;;;;;;;24.70;23.70;;;20.70;99.90;;;;;;5006445;28;20536;-66
2023/10/06 04:21:42;;;;;;;26.50;25.40;;;20.70;99.90;;;;;;5013468;28;20446;-65
2023/10/06 04:24:09;;;;;;;24.97;24.07;;;20.70;99.90;;;;;;5013329;28;20474;-65
2023/10/06 04:26:36;;;;;;;24.33;23.23;;;20.70;99.90;;;;;;5013262;28;20517;-65
2023/10/06 04:29:04;;;;;;;25.57;24.57;;;20.70;99.90;;;;;;5013387;28;20489;-65
2023/10/06 04:31:31;;;;;;;25.00;24.00;;;20.70;99.90;;;;;;5013465;28;20450;-65
2023/10/06 04:33:58;;;;;;;23.50;22.70;;;20.70;99.90;;;;;;5013132;28;20469;-65
2023/10/06 04:36:27;;;;;;;25.73;24.63;;;20.60;99.90;;;;;;5012914;28;20466;-66
2023/10/06 04:38:54;;;;;;;23.10;22.30;;;20.60;99.90;;;;;;5013082;28;20810;-65
2023/10/06 04:41:21;;;;;;;25.10;24.10;;;20.60;99.90;;;;;;5012948;28;20516;-65
2023/10/06 04:43:48;;;;;;;24.40;23.53;;;20.60;99.90;;;;;;5012863;28;20446;-65
2023/10/06 04:46:15;;;;;;;24.80;23.70;;;20.60;99.90;;;;;;5012797;28;20493;-66
2023/10/06 04:48:42;;;;;;;23.97;23.07;;;20.60;99.90;;;;;;5009732;28;20478;-65
2023/10/06 04:51:10;;;;;;;24.27;23.30;;;20.60;99.90;;;;;;5013133;28;20496;-64
2023/10/06 04:53:39;;;;;;;22.80;22.00;;;20.60;99.90;;;;;;5012880;28;20477;-65
2023/10/06 04:56:07;;;;;;;22.33;21.53;;;20.60;99.90;;;;;;5012765;28;20836;-64
2023/10/06 04:58:36;;;;;;;23.40;22.50;;;20.60;99.90;;;;;;5012220;28;20493;-64
2023/10/06 05:01:04;;;;;;;24.63;23.63;;;20.60;99.90;;;;;;5012595;28;20474;-65
2023/10/06 05:03:40;;;;;;;25.67;24.67;;;20.60;99.90;;;;;;5012486;28;20482;-65
2023/10/06 05:06:09;;;;;;;24.87;23.87;;;20.60;99.90;;;;;;5012740;28;20469;-65
2023/10/06 05:08:39;;;;;;;24.37;23.30;;;20.60;99.90;;;;;;5012675;28;20965;-65
2023/10/06 05:11:07;;;;;;;23.33;22.40;;;20.60;99.90;;;;;;5012645;28;20438;-66
2023/10/06 05:13:34;;;;;;;24.00;23.07;;;20.60;99.90;;;;;;5012429;28;20452;-65
2023/10/06 05:16:01;;;;;;;23.93;23.03;;;20.70;99.90;;;;;;5012495;28;20470;-65
2023/10/06 05:18:29;;;;;;;25.97;24.87;;;20.70;99.90;;;;;;5012407;28;20530;-65
2023/10/06 05:20:58;;;;;;;24.70;23.80;;;20.70;99.90;;;;;;5012341;28;20488;-66
2023/10/06 05:23:26;;;;;;;25.33;24.13;;;20.70;99.90;;;;;;5012288;28;20929;-65
2023/10/06 05:26:02;;;;;;;25.97;24.27;;;20.80;99.90;;;;;;5012370;28;20524;-65
2023/10/06 05:28:29;;;;;;;26.67;25.30;;;20.90;99.90;;;;;;5012347;28;20815;-65
2023/10/06 05:30:57;;;;;;;27.73;25.60;;;20.90;99.90;;;;;;5012416;28;21301;-66
2023/10/06 05:33:25;;;;;;;32.27;29.50;;;20.90;99.90;;;;;;5012094;28;20450;-66
2023/10/06 05:35:51;;;;;;;29.13;26.93;;;20.90;99.90;;;;;;5012043;28;20516;-65
2023/10/06 05:38:19;;;;;;;31.13;28.00;;;20.90;99.90;;;;;;5012079;28;20454;-63
2023/10/06 05:40:48;;;;;;;28.77;25.77;;;20.90;99.90;;;;;;5012073;28;20535;-66
2023/10/06 05:43:17;;;;;;;25.87;23.83;;;20.90;99.90;;;;;;5012018;28;20489;-65
2023/10/06 05:45:44;;;;;;;25.40;23.73;;;21.00;99.90;;;;;;5011456;28;20575;-66
2023/10/06 05:48:12;;;;;;;26.70;23.90;;;21.00;99.90;;;;;;5011692;28;20458;-64
2023/10/06 05:50:40;;;;;;;28.30;26.20;;;21.10;99.90;;;;;;5012099;28;20473;-62
2023/10/06 05:53:12;;;;;;;27.63;25.87;;;21.10;99.90;;;;;;5011168;28;20818;-62
2023/10/06 05:55:41;;;;;;;29.80;27.37;;;21.10;99.90;;;;;;5010758;28;20474;-63
2023/10/06 05:58:14;;;;;;;27.73;26.03;;;21.10;99.90;;;;;;5011320;28;20453;-61
2023/10/06 06:00:50;;;;;;;28.50;26.27;;;21.00;99.90;;;;;;5011916;28;20481;-61
2023/10/06 06:03:20;;;;;;;28.77;26.60;;;21.00;99.90;;;;;;5004388;28;20933;-62
2023/10/06 06:05:47;;;;;;;30.03;27.80;;;21.00;99.90;;;;;;5011511;28;20886;-62
2023/10/06 06:08:14;;;;;;;29.10;26.83;;;21.00;99.90;;;;;;5011720;28;20482;-62
2023/10/06 06:10:41;;;;;;;30.00;26.80;;;21.00;99.90;;;;;;5011570;28;20486;-62
2023/10/06 06:13:08;;;;;;;27.63;26.23;;;21.00;99.90;;;;;;5011306;28;20466;-60
2023/10/06 06:15:37;;;;;;;28.93;27.43;;;21.00;99.90;;;;;;5011477;28;20501;-62
2023/10/06 06:18:05;;;;;;;28.40;26.23;;;21.00;99.90;;;;;;5011556;28;20500;-62
2023/10/06 06:20:32;;;;;;;27.73;26.13;;;21.00;99.90;;;;;;5011368;28;20481;-63
2023/10/06 06:22:59;;;;;;;31.57;29.57;;;21.00;99.90;;;;;;5011207;28;20478;-62
2023/10/06 06:25:26;;;;;;;28.07;26.70;;;21.00;99.90;;;;;;5011357;28;21008;-62
2023/10/06 06:27:54;;;;;;;27.80;26.50;;;21.00;99.90;;;;;;5011457;28;20816;-62
2023/10/06 06:30:21;;;;;;;27.97;26.50;;;21.00;99.90;;;;;;5011497;28;20442;-63
2023/10/06 06:32:49;;;;;;;27.63;26.27;;;21.00;99.90;;;;;;5011004;28;20461;-63
2023/10/06 06:35:19;;;;;;;29.07;27.50;;;20.90;99.90;;;;;;5011236;28;20945;-63
2023/10/06 06:37:47;;;;;;;27.17;25.47;;;20.90;99.90;;;;;;5011292;28;20545;-63
2023/10/06 06:40:14;;;;;;;30.13;27.93;;;20.90;99.90;;;;;;5011175;28;20489;-63
2023/10/06 06:42:41;;;;;;;27.60;26.07;;;20.90;99.90;;;;;;5011069;28;20484;-61
2023/10/06 06:45:13;;;;;;;27.97;26.57;;;20.90;99.90;;;;;;5011092;28;20835;-63
2023/10/06 06:47:41;;;;;;;27.53;26.10;;;20.90;99.90;;;;;;5011396;28;21092;-63
2023/10/06 06:50:09;;;;;;;28.10;26.20;;;20.90;99.90;;;;;;5011149;28;20446;-62
2023/10/06 06:52:38;;;;;;;27.60;26.10;;;20.90;99.90;;;;;;5011109;28;20613;-63
2023/10/06 06:55:12;;;;;;;26.43;24.93;;;20.90;99.90;;;;;;5010954;28;20466;-62
2023/10/06 06:57:41;;;;;;;27.30;26.07;;;20.90;99.90;;;;;;5011278;28;20471;-61
2023/10/06 07:00:15;;;;;;;27.17;25.73;;;20.90;99.90;;;;;;5011046;28;20505;-63
2023/10/06 07:02:41;;;;;;;28.93;27.23;;;20.90;99.90;;;;;;5010898;28;20445;-63
2023/10/06 07:05:10;;;;;;;28.83;27.37;;;20.90;99.90;;;;;;5011003;28;20465;-63
2023/10/06 07:07:42;;;;;;;28.20;26.50;;;20.90;99.90;;;;;;5011118;28;20889;-62
2023/10/06 07:10:12;;;;;;;26.67;25.30;;;20.90;99.90;;;;;;5013899;28;20442;-63
2023/10/06 07:12:39;;;;;;;27.37;25.97;;;20.90;99.90;;;;;;5014659;28;20532;-64
2023/10/06 07:15:14;;;;;;;27.50;26.17;;;20.90;99.90;;;;;;5014610;28;20927;-62
2023/10/06 07:17:42;;;;;;;26.03;24.93;;;20.90;99.90;;;;;;5014876;28;20512;-62
2023/10/06 07:20:14;;;;;;;28.13;26.73;;;20.90;99.90;;;;;;5014463;28;20438;-63
2023/10/06 07:22:42;;;;;;;27.23;25.83;;;20.90;99.90;;;;;;5014372;28;20449;-63
2023/10/06 07:25:10;;;;;;;26.23;24.53;;;20.90;99.90;;;;;;5014304;28;20489;-63
2023/10/06 07:27:38;;;;;;;28.67;27.27;;;20.90;99.90;;;;;;5014587;28;20473;-63
2023/10/06 07:30:10;;;;;;;28.00;26.63;;;20.90;99.90;;;;;;5014505;28;20473;-62
2023/10/06 07:32:40;;;;;;;27.63;26.23;;;20.90;99.90;;;;;;5014214;28;20481;-63
2023/10/06 07:35:08;;;;;;;28.87;27.53;;;20.90;99.90;;;;;;5061524;22;20481;-64
2023/10/06 07:37:36;;;;;;;27.67;26.27;;;20.90;99.90;;;;;;5034234;28;20440;-64
2023/10/06 07:40:12;;;;;;;28.00;26.50;;;20.90;99.90;;;;;;5034002;28;20955;-64
2023/10/06 07:42:41;;;;;;;27.73;26.33;;;20.90;99.90;;;;;;5033917;28;20465;-64
2023/10/06 07:45:09;;;;;;;27.50;26.23;;;20.80;99.90;;;;;;5031188;28;20465;-64
2023/10/06 07:47:36;;;;;;;27.63;26.23;;;20.80;99.90;;;;;;5022341;28;20525;-64
2023/10/06 07:50:04;;;;;;;28.03;26.83;;;20.80;99.90;;;;;;5024248;28;20441;-64
2023/10/06 07:52:31;;;;;;;28.53;27.23;;;20.90;99.90;;;;;;5025362;28;20437;-64
2023/10/06 07:54:58;;;;;;;29.10;27.47;;;20.90;99.90;;;;;;5024093;28;20465;-64
2023/10/06 07:57:31;;;;;;;27.17;25.87;;;20.90;99.90;;;;;;5022221;28;20442;-64
2023/10/06 07:59:59;;;;;;;27.50;26.10;;;20.80;99.90;;;;;;5023363;28;20442;-64
2023/10/06 08:02:29;;;;;;;26.60;25.50;;;20.80;99.90;;;;;;5025311;28;20477;-64
2023/10/06 08:04:56;;;;;;;27.67;26.37;;;20.80;99.90;;;;;;5024385;28;20473;-64
2023/10/06 08:07:26;;;;;;;26.07;24.93;;;20.90;99.90;;;;;;5022172;28;20945;-64
2023/10/06 08:09:53;;;;;;;26.40;25.20;;;20.90;99.90;;;;;;5022459;28;20446;-65
2023/10/06 08:12:20;;;;;;;27.20;26.10;;;20.90;99.90;;;;;;5025316;28;20437;-64
2023/10/06 08:14:49;;;;;;;27.70;26.40;;;20.90;99.90;;;;;;5025153;28;20493;-64
2023/10/06 08:17:16;;;;;;;27.13;25.93;;;20.80;99.90;;;;;;5021761;28;20446;-65
2023/10/06 08:19:42;;;;;;;26.77;25.57;;;20.80;99.90;;;;;;5021334;28;20473;-65
2023/10/06 08:22:09;;;;;;;27.53;26.43;;;20.80;99.90;;;;;;5024164;28;20789;-64
2023/10/06 08:24:36;;;;;;;27.50;26.30;;;20.80;99.90;;;;;;5024977;28;20477;-64
2023/10/06 08:27:03;;;;;;;26.27;25.20;;;20.80;99.90;;;;;;5023018;28;20480;-64
2023/10/06 08:29:32;;;;;;;26.57;25.47;;;20.80;99.90;;;;;;5021544;28;20887;-64
2023/10/06 08:32:02;;;;;;;29.17;27.40;;;20.80;99.90;;;;;;5022674;28;20788;-64
2023/10/06 08:34:30;;;;;;;27.63;26.40;;;20.80;99.90;;;;;;5024555;28;20520;-64
2023/10/06 08:36:57;;;;;;;25.87;24.80;;;20.80;99.90;;;;;;5023770;28;20475;-65
2023/10/06 08:39:38;;;;;;;28.43;27.03;;;20.80;99.90;;;;;;5021248;28;20469;-64
2023/10/06 08:42:08;;;;;;;27.27;25.73;;;20.80;99.90;;;;;;5023184;28;21004;-64
2023/10/06 08:44:37;;;;;;;26.47;25.20;;;20.80;99.90;;;;;;5024665;28;20871;-65
2023/10/06 08:47:10;;;;;;;26.43;25.00;;;20.80;99.90;;;;;;5022671;28;20446;-64
2023/10/06 08:49:38;;;;;;;25.87;24.77;;;20.80;99.90;;;;;;5021213;28;20488;-64
2023/10/06 08:52:07;;;;;;;26.30;25.20;;;20.80;99.90;;;;;;5023156;28;20472;-64
2023/10/06 08:54:35;;;;;;;28.63;27.13;;;20.80;99.90;;;;;;5024523;28;20441;-64
2023/10/06 08:57:03;;;;;;;28.50;27.20;;;20.80;99.90;;;;;;5022750;28;20451;-64
2023/10/06 08:59:31;;;;;;;27.00;25.70;;;20.80;99.90;;;;;;5021153;28;21044;-64
2023/10/06 09:02:00;;;;;;;26.93;25.73;;;20.80;99.90;;;;;;5021743;28;20487;-64
2023/10/06 09:04:35;;;;;;;27.27;26.07;;;20.80;99.90;;;;;;5024161;28;20813;-64
2023/10/06 09:07:15;;;;;;;26.57;25.37;;;20.80;99.90;;;;;;5022684;28;20762;-64
2023/10/06 09:09:43;;;;;;;26.97;25.77;;;20.80;99.90;;;;;;5020802;28;20466;-64
2023/10/06 09:12:10;;;;;;;25.87;24.77;;;20.80;99.90;;;;;;5023062;28;20521;-65
2023/10/06 09:14:52;;;;;;;25.47;24.47;;;20.80;99.90;;;;;;5023968;28;20928;-64
2023/10/06 09:17:33;;;;;;;27.30;26.10;;;20.80;99.90;;;;;;5012988;28;20446;-65
2023/10/06 09:20:02;;;;;;;27.17;25.87;;;20.80;99.90;;;;;;5021749;28;20466;-64
2023/10/06 09:22:43;;;;;;;26.50;25.30;;;20.80;99.90;;;;;;5023683;28;20581;-64
2023/10/06 09:25:10;;;;;;;24.83;23.83;;;20.80;99.90;;;;;;5021118;28;20520;-64
2023/10/06 09:27:38;;;;;;;25.63;24.53;;;20.80;99.90;;;;;;5020453;28;20880;-65
2023/10/06 09:30:07;;;;;;;26.37;25.27;;;20.80;99.90;;;;;;5022331;28;20504;-65
2023/10/06 09:32:34;;;;;;;25.67;24.67;;;20.80;99.90;;;;;;5022951;28;20943;-65
2023/10/06 09:35:19;;;;;;;25.60;24.40;;;20.80;99.90;;;;;;5022241;28;20479;-65
2023/10/06 09:37:46;;;;;;;26.80;25.60;;;20.80;99.90;;;;;;5020299;28;20554;-65
2023/10/06 09:40:20;;;;;;;26.27;25.27;;;20.90;99.90;;;;;;5022989;28;20932;-64
2023/10/06 09:42:48;;;;;;;25.50;24.40;;;20.80;99.90;;;;;;5023439;28;20503;-66
2023/10/06 09:45:19;;;;;;;26.17;25.07;;;20.80;99.90;;;;;;5020424;28;20888;-64
2023/10/06 09:47:54;;;;;;;26.17;25.07;;;20.80;99.90;;;;;;5020250;28;20530;-64
2023/10/06 09:50:23;;;;;;;25.73;24.73;;;20.80;99.90;;;;;;5012717;28;20452;-63
2023/10/06 09:52:52;;;;;;;26.60;25.60;;;20.90;99.90;;;;;;5019877;28;20474;-65
2023/10/06 09:55:20;;;;;;;26.37;25.27;;;20.80;99.90;;;;;;5012222;28;20470;-63
2023/10/06 09:57:48;;;;;;;26.13;25.13;;;20.80;99.90;;;;;;5020099;28;20473;-65
2023/10/06 10:00:17;;;;;;;26.47;25.27;;;20.80;99.90;;;;;;5023077;28;20838;-64
2023/10/06 10:02:46;;;;;;;26.07;25.00;;;20.80;99.90;;;;;;5023033;28;20635;-65
2023/10/06 10:05:13;;;;;;;26.20;25.20;;;20.80;99.90;;;;;;5020502;28;20616;-66
2023/10/06 10:07:42;;;;;;;26.73;25.63;;;20.80;99.90;;;;;;5019890;28;20936;-65
2023/10/06 10:10:11;;;;;;;25.43;24.43;;;20.80;99.90;;;;;;5022266;28;20489;-66
2023/10/06 10:12:53;;;;;;;25.77;24.80;;;20.80;99.90;;;;;;5022981;28;20437;-65
2023/10/06 10:15:34;;;;;;;25.80;24.77;;;20.80;99.90;;;;;;5011912;28;20490;-63
2023/10/06 10:18:08;;;;;;;25.87;24.87;;;20.80;99.90;;;;;;5021006;28;20445;-66
2023/10/06 10:20:36;;;;;;;25.87;24.77;;;20.80;99.90;;;;;;5023225;28;20444;-65
2023/10/06 10:23:06;;;;;;;25.97;24.97;;;20.80;99.90;;;;;;5021373;28;20862;-65
2023/10/06 10:25:36;;;;;;;26.80;25.73;;;20.80;99.90;;;;;;5019850;28;20984;-66
2023/10/06 10:28:14;;;;;;;25.87;24.67;;;20.80;99.90;;;;;;5020773;28;20450;-66
2023/10/06 10:30:56;;;;;;;25.70;24.67;;;20.80;99.90;;;;;;5023029;28;20503;-66
2023/10/06 10:33:24;;;;;;;26.53;25.53;;;20.80;99.90;;;;;;5011836;28;20442;-65
2023/10/06 10:36:22;;;;;;;26.07;25.07;;;20.80;99.90;;;;;;5019414;28;20496;-66
2023/10/06 10:39:09;;;;;;;27.83;26.73;;;20.80;99.90;;;;;;5017346;28;20500;-66
2023/10/06 10:41:37;;;;;;;25.90;24.70;;;20.90;99.90;;;;;;5003440;28;20480;-65
2023/10/06 10:44:11;;;;;;;25.43;24.43;;;20.90;99.90;;;;;;5024695;28;21018;-67
2023/10/06 10:46:42;;;;;;;25.47;24.40;;;20.90;99.90;;;;;;5024313;28;20516;-66
2023/10/06 10:49:13;;;;;;;24.20;23.30;;;20.90;99.90;;;;;;5032104;28;20444;-68
2023/10/06 10:51:55;;;;;;;25.60;24.47;;;20.90;99.90;;;;;;5024296;28;20457;-67
2023/10/06 10:54:27;;;;;;;27.27;26.03;;;20.90;99.90;;;;;;5027897;28;20505;-68
2023/10/06 10:57:02;;;;;;;26.27;25.27;;;20.90;99.90;;;;;;5028539;28;20437;-68
2023/10/06 11:00:12;;;;;;;26.07;25.07;;;20.90;99.90;;;;;;5013408;28;20455;-67
2023/10/06 11:02:41;;;;;;;25.83;24.80;;;20.90;99.90;;;;;;5014513;28;20504;-66
2023/10/06 11:05:09;;;;;;;24.13;23.23;;;20.90;99.90;;;;;;5026386;28;20488;-68
2023/10/06 11:07:36;;;;;;;25.53;24.53;;;20.90;99.90;;;;;;5022351;28;20832;-69
2023/10/06 11:10:06;;;;;;;27.13;26.03;;;21.00;99.90;;;;;;5020562;28;20486;-68
2023/10/06 11:12:35;;;;;;;27.13;25.90;;;21.00;99.90;;;;;;5027892;28;20921;-68
2023/10/06 11:15:13;;;;;;;26.23;25.23;;;21.00;99.90;;;;;;5026859;28;20469;-69
2023/10/06 11:17:43;;;;;;;26.80;25.60;;;21.00;99.90;;;;;;5024252;28;20441;-65
2023/10/06 11:20:15;;;;;;;26.00;24.70;;;21.00;99.90;;;;;;5025537;28;20454;-68
2023/10/06 11:22:57;;;;;;;25.33;24.33;;;21.10;99.90;;;;;;5027151;28;20995;-69
2023/10/06 11:25:28;;;;;;;25.30;24.40;;;21.10;99.90;;;;;;5016804;28;20545;-69
2023/10/06 11:28:00;;;;;;;26.73;25.73;;;21.10;99.90;;;;;;5023550;28;20507;-70
2023/10/06 11:30:30;;;;;;;26.03;24.93;;;21.10;99.90;;;;;;5013278;28;20507;-71
2023/10/06 11:32:58;;;;;;;24.70;23.80;;;21.10;99.90;;;;;;5019702;28;20876;-70
2023/10/06 11:35:26;;;;;;;26.17;25.17;;;21.10;99.90;;;;;;5026748;28;20501;-68
2023/10/06 11:37:53;;;;;;;25.20;24.20;;;21.10;99.90;;;;;;5027669;28;21028;-68
2023/10/06 11:40:23;;;;;;;25.87;24.73;;;21.10;99.90;;;;;;5020182;28;20580;-69
2023/10/06 11:42:52;;;;;;;24.63;23.73;;;21.20;99.90;;;;;;5027121;28;20822;-69
2023/10/06 11:45:26;;;;;;;25.30;24.30;;;21.20;99.90;;;;;;5015100;28;20523;-69
2023/10/06 11:47:53;;;;;;;26.90;25.80;;;21.20;99.90;;;;;;5026740;28;20526;-67
2023/10/06 11:50:24;;;;;;;27.00;25.80;;;21.20;99.90;;;;;;5023406;28;20864;-68
2023/10/06 11:52:52;;;;;;;26.53;25.43;;;21.20;99.90;;;;;;5023198;28;20438;-68
2023/10/06 11:55:30;;;;;;;27.80;26.50;;;21.20;99.90;;;;;;5025800;28;20468;-68
2023/10/06 11:58:00;;;;;;;26.93;25.83;;;21.20;99.90;;;;;;5026585;28;20511;-68
2023/10/06 12:00:42;;;;;;;29.67;27.83;;;21.20;99.90;;;;;;5026742;28;20524;-67
2023/10/06 12:03:11;;;;;;;28.50;27.17;;;21.20;99.80;;;;;;5024500;28;20484;-67
2023/10/06 12:05:41;;;;;;;31.90;30.40;;;21.20;99.90;;;;;;5022955;28;20473;-64
2023/10/06 12:08:11;;;;;;;28.07;26.83;;;21.30;99.80;;;;;;5025287;28;20453;-64
2023/10/06 12:10:48;;;;;;;27.53;26.53;;;21.30;99.50;;;;;;5022930;28;20446;-67
2023/10/06 12:13:17;;;;;;;26.60;25.40;;;21.40;99.10;;;;;;5025055;28;20517;-65
2023/10/06 12:15:45;;;;;;;26.23;25.10;;;21.40;98.80;;;;;;5025984;28;20500;-66
2023/10/06 12:18:12;;;;;;;27.97;26.97;;;21.50;98.80;;;;;;5026791;28;20816;-68
2023/10/06 12:20:40;;;;;;;28.07;26.97;;;21.50;99.20;;;;;;5027304;28;20480;-67
2023/10/06 12:23:07;;;;;;;27.30;26.20;;;21.50;98.70;;;;;;5024550;28;21008;-67
2023/10/06 12:25:36;;;;;;;28.00;26.73;;;21.50;98.70;;;;;;5020446;28;20501;-67
2023/10/06 12:28:04;;;;;;;26.87;25.87;;;21.50;98.50;;;;;;5024276;28;20542;-66
2023/10/06 12:30:32;;;;;;;27.10;26.10;;;21.50;98.60;;;;;;5026752;28;20445;-67
2023/10/06 12:32:59;;;;;;;25.40;24.50;;;21.50;98.80;;;;;;5026322;28;20567;-65
2023/10/06 12:35:28;;;;;;;26.00;24.90;;;21.50;98.40;;;;;;5014212;28;20489;-63
2023/10/06 12:37:55;;;;;;;26.20;25.10;;;21.60;98.50;;;;;;5021631;28;20442;-63
2023/10/06 12:40:22;;;;;;;25.80;24.80;;;21.60;98.30;;;;;;5025005;28;20461;-63
2023/10/06 12:42:49;;;;;;;25.33;24.20;;;21.60;98.20;;;;;;5024931;28;20476;-63